^^
Station Historical Data
Daily Summary for May 31, 2017 Units:  English    Metric   Both
« Previous Day
Next Day »
Daily Weekly Monthly Yearly Custom
  High: Low: Average:
Temperature: 76.5 °F 55.7 °F 64.4 °F
Dew Point: 63.8 °F 54.9 °F 59.3 °F
Humidity: 98% 57% 85%
Wind Speed: 6.0mph 0.0mph 1.2mph
Wind Gust: 14.0mph - -
Wind- - SW
Pressure: 30.11 in 29.91 in -
Precipitation: 0.32 in    
Historical Graphs
 
 
Tabular Data for May 31, 2017
Time Temperature Dew Point Pressure Wind Wind Speed Wind Gust Humidity Rainfall Rate (Hourly) Conditions
00:00 56.2 °F 55.1 °F 30.11 in Calm   2.0 mph 96% 0.01 in RA
00:15 56.2 °F 55.1 °F 30.11 in Calm   3.0 mph 96% 0.00 in CLR
00:30 56.2 °F 55.1 °F 30.11 in Calm   1.0 mph 96% 0.00 in CLR
00:45 56.2 °F 55.4 °F 30.11 in Calm   1.0 mph 97% 0.00 in CLR
01:00 56.3 °F 55.5 °F 30.11 in Calm   1.0 mph 97% 0.00 in CLR
02:15 56.3 °F 55.5 °F 30.07 in Calm   1.0 mph 97% 0.00 in CLR
02:30 56.2 °F 55.4 °F 30.06 in Calm   1.0 mph 97% 0.00 in CLR
02:45 56.1 °F 55.3 °F 30.06 in Calm   1.0 mph 97% 0.00 in CLR
03:00 56.0 °F 55.2 °F 30.06 in Calm   3.0 mph 97% 0.00 in CLR
03:15 56.0 °F 55.2 °F 30.06 in North 1.0 mph 4.0 mph 97% 0.00 in CLR
03:30 56.0 °F 55.1 °F 30.06 in Calm   3.0 mph 97% 0.00 in CLR
03:45 55.9 °F 55.1 °F 30.06 in Calm   2.0 mph 97% 0.00 in CLR
04:00 55.9 °F 55.1 °F 30.06 in Calm   1.0 mph 97% 0.00 in CLR
04:15 55.9 °F 55.1 °F 30.05 in Calm   1.0 mph 97% 0.01 in RA
04:30 55.9 °F 55.1 °F 30.04 in Calm   1.0 mph 97% 0.00 in
05:00 55.8 °F 55.0 °F 30.04 in Calm   2.0 mph 97% 0.00 in
05:15 55.7 °F 54.9 °F 30.04 in Calm   3.0 mph 97% 0.00 in CLR
05:30 55.8 °F 55.0 °F 30.06 in NW 1.0 mph 2.0 mph 97% 0.00 in CLR
05:45 55.8 °F 55.0 °F 30.08 in Calm   1.0 mph 97% 0.00 in CLR
06:00 55.9 °F 55.3 °F 30.07 in Calm   1.0 mph 98% 0.00 in CLR
06:15 55.9 °F 55.3 °F 30.07 in Calm   1.0 mph 98% 0.01 in +DZ
06:30 55.9 °F 55.3 °F 30.07 in Calm   1.0 mph 98% 0.00 in +DZ
06:45 56.1 °F 55.5 °F 30.08 in Calm   2.0 mph 98% 0.00 in +DZ
07:00 56.2 °F 55.6 °F 30.08 in Calm   2.0 mph 98% 0.00 in +DZ
07:15 56.4 °F 55.8 °F 30.07 in Calm   2.0 mph 98% 0.00 in -DZ
07:45 57.4 °F 56.8 °F 30.07 in Calm   2.0 mph 98% 0.00 in -DZ
08:00 57.5 °F 56.9 °F 30.07 in Calm   2.0 mph 98% 0.00 in -DZ
08:15 58.1 °F 57.5 °F 30.07 in Calm   2.0 mph 98% 0.00 in BKN
08:30 58.0 °F 57.2 °F 30.07 in Calm   2.0 mph 97% 0.00 in BKN
08:45 58.1 °F 57.3 °F 30.08 in Calm   2.0 mph 97% 0.00 in BKN
09:00 58.1 °F 57.3 °F 30.08 in Calm   3.0 mph 97% 0.00 in BKN
09:15 58.0 °F 57.2 °F 30.08 in Calm   2.0 mph 97% 0.00 in OVC
09:30 59.0 °F 58.4 °F 30.06 in Calm   2.0 mph 98% 0.00 in OVC
09:45 60.3 °F 59.8 °F 30.05 in SSW 1.0 mph 5.0 mph 98% 0.00 in OVC
10:00 61.3 °F 60.4 °F 30.06 in Calm   5.0 mph 97% 0.00 in OVC
10:15 61.3 °F 59.9 °F 30.07 in Calm   3.0 mph 95% 0.00 in BKN
10:30 61.2 °F 59.8 °F 30.05 in Calm   1.0 mph 95% 0.00 in BKN
10:45 62.4 °F 61.3 °F 30.03 in Calm   2.0 mph 96% 0.00 in BKN
11:00 63.5 °F 61.4 °F 30.03 in WSW 1.0 mph 5.0 mph 93% 0.00 in BKN
11:15 64.9 °F 62.2 °F 30.02 in Calm   5.0 mph 91% 0.00 in BKN
11:30 66.6 °F 62.6 °F 30.02 in NW 1.0 mph 5.0 mph 87% 0.00 in BKN
11:45 66.3 °F 62.0 °F 30.03 in North 1.0 mph 6.0 mph 86% 0.00 in BKN
12:00 66.3 °F 61.3 °F 30.03 in East 2.0 mph 6.0 mph 84% 0.00 in BKN
12:15 66.2 °F 61.6 °F 30.02 in WNW 1.0 mph 3.0 mph 85% 0.00 in BKN
12:30 65.9 °F 61.3 °F 30.02 in Calm   3.0 mph 85% 0.00 in BKN
12:45 66.2 °F 61.6 °F 30.02 in Calm   5.0 mph 85% 0.00 in BKN
13:00 67.0 °F 61.6 °F 30.02 in SSW 1.0 mph 5.0 mph 83% 0.00 in BKN
13:15 67.2 °F 61.8 °F 30.02 in SSW 3.0 mph 6.0 mph 83% 0.00 in BKN
13:30 67.2 °F 61.5 °F 30.01 in WSW 2.0 mph 8.0 mph 82% 0.00 in BKN
13:45 69.3 °F 62.9 °F 30.01 in Calm   5.0 mph 80% 0.00 in BKN
14:00 69.1 °F 62.0 °F 30.01 in WSW 5.0 mph 7.0 mph 78% 0.00 in BKN
14:15 69.8 °F 63.0 °F 30.00 in SSW 1.0 mph 6.0 mph 79% 0.00 in BKN
14:30 71.3 °F 63.0 °F 29.99 in SSW 2.0 mph 6.0 mph 75% 0.00 in BKN
14:45 72.9 °F 62.9 °F 29.99 in SW 2.0 mph 6.0 mph 71% 0.00 in BKN
15:00 72.5 °F 63.0 °F 29.99 in SW 2.0 mph 8.0 mph 72% 0.00 in BKN
15:15 73.6 °F 63.2 °F 29.98 in SSW 2.0 mph 7.0 mph 70% 0.00 in SCT
15:30 74.1 °F 63.7 °F 29.97 in WSW 3.0 mph 12.0 mph 70% 0.00 in SCT
15:45 74.6 °F 63.8 °F 29.96 in SSW 2.0 mph 8.0 mph 69% 0.00 in SCT
16:00 74.7 °F 63.8 °F 29.95 in SW 3.0 mph 12.0 mph 69% 0.00 in SCT
16:15 75.4 °F 63.7 °F 29.94 in SSW 5.0 mph 12.0 mph 67% 0.00 in SCT
16:30 76.1 °F 63.5 °F 29.93 in SW 3.0 mph 12.0 mph 65% 0.00 in SCT
16:45 75.8 °F 63.2 °F 29.93 in SW 3.0 mph 10.0 mph 65% 0.00 in SCT
17:00 75.4 °F 62.9 °F 29.92 in SW 5.0 mph 12.0 mph 65% 0.00 in SCT
17:15 75.7 °F 62.7 °F 29.93 in WSW 6.0 mph 10.0 mph 64% 0.00 in SCT
17:30 75.6 °F 62.2 °F 29.92 in SSW 1.0 mph 12.0 mph 63% 0.00 in SCT
17:45 76.2 °F 61.8 °F 29.92 in SSW 3.0 mph 8.0 mph 61% 0.00 in SCT
18:00 76.1 °F 62.1 °F 29.92 in South 2.0 mph 8.0 mph 62% 0.00 in SCT
18:15 76.5 °F 61.6 °F 29.92 in SW 6.0 mph 12.0 mph 60% 0.00 in FEW
18:30 76.1 °F 61.2 °F 29.92 in SW 5.0 mph 10.0 mph 60% 0.00 in FEW
18:45 76.2 °F 60.8 °F 29.92 in SW 2.0 mph 9.0 mph 59% 0.00 in FEW
19:00 76.0 °F 59.7 °F 29.91 in SSW 3.0 mph 9.0 mph 57% 0.00 in FEW
19:15 75.6 °F 60.7 °F 29.92 in SW 6.0 mph 12.0 mph 60% 0.00 in FEW
19:30 74.9 °F 61.4 °F 29.91 in SSW 5.0 mph 10.0 mph 63% 0.00 in FEW
19:45 73.8 °F 61.7 °F 29.91 in South 1.0 mph 10.0 mph 66% 0.00 in FEW
20:00 72.4 °F 61.3 °F 29.92 in SSW 1.0 mph 5.0 mph 68% 0.00 in FEW
20:15 71.5 °F 61.2 °F 29.92 in SSE 2.0 mph 6.0 mph 70% 0.00 in FEW
20:45 68.8 °F 62.0 °F 29.93 in SSW 1.0 mph 4.0 mph 79% 0.00 in FEW
21:00 67.7 °F 62.0 °F 29.93 in Calm   4.0 mph 82% 0.00 in FEW
21:15 66.6 °F 61.6 °F 29.94 in NE 3.0 mph 5.0 mph 84% 0.00 in SCT
21:30 65.7 °F 61.7 °F 29.95 in Calm   4.0 mph 87% 0.00 in SCT
21:45 65.2 °F 61.2 °F 29.95 in Calm   2.0 mph 87% 0.00 in SCT
22:00 64.3 °F 61.0 °F 29.96 in Calm   2.0 mph 89% 0.00 in SCT
22:15 63.9 °F 60.9 °F 29.96 in WNW 1.0 mph 4.0 mph 90% 0.00 in CLR
22:30 63.4 °F 60.4 °F 29.95 in Calm   4.0 mph 90% 0.00 in CLR
22:45 63.2 °F 60.5 °F 29.95 in Calm   2.0 mph 91% 0.00 in CLR
23:00 62.7 °F 58.2 °F 29.98 in NNE 3.0 mph 14.0 mph 85% 0.00 in CLR
23:15 62.4 °F 55.5 °F 29.98 in NNW 2.0 mph 12.0 mph 78% 0.00 in SCT
23:30 61.3 °F 56.1 °F 29.98 in West 1.0 mph 6.0 mph 83% 0.15 in RA
23:45 59.0 °F 56.3 °F 29.96 in Calm   5.0 mph 91% 0.15 in SCT
TarryTown NY Weather
Compliments of Weather Underground - 1.5 mb